sensor_id;sensor_type;location;lat;lon;timestamp;pressure;altitude;pressure_sealevel;temperature;humidity
72896;BME280;61036;53.224;6.554;2023-10-09T00:00:10;101918.38;;;19.81;100.00
72896;BME280;61036;53.224;6.554;2023-10-09T00:02:54;101926.06;;;19.49;100.00
72896;BME280;61036;53.224;6.554;2023-10-09T00:05:20;101912.75;;;19.16;100.00
72896;BME280;61036;53.224;6.554;2023-10-09T00:07:49;101916.16;;;19.48;100.00
72896;BME280;61036;53.224;6.554;2023-10-09T00:10:21;101911.56;;;19.38;100.00
72896;BME280;61036;53.224;6.554;2023-10-09T00:12:47;101908.81;;;19.68;100.00
72896;BME280;61036;53.224;6.554;2023-10-09T00:15:14;101914.56;;;19.64;100.00
72896;BME280;61036;53.224;6.554;2023-10-09T00:17:44;101898.28;;;19.53;100.00
72896;BME280;61036;53.224;6.554;2023-10-09T00:20:13;101894.00;;;19.31;100.00
72896;BME280;61036;53.224;6.554;2023-10-09T00:22:55;101889.69;;;19.19;100.00
72896;BME280;61036;53.224;6.554;2023-10-09T00:25:22;101880.28;;;19.51;100.00
72896;BME280;61036;53.224;6.554;2023-10-09T00:27:49;101878.75;;;19.29;100.00
72896;BME280;61036;53.224;6.554;2023-10-09T00:30:16;101876.25;;;19.45;100.00
72896;BME280;61036;53.224;6.554;2023-10-09T00:32:47;101879.31;;;19.32;100.00
72896;BME280;61036;53.224;6.554;2023-10-09T00:35:19;101881.50;;;19.19;100.00
72896;BME280;61036;53.224;6.554;2023-10-09T00:38:03;101878.63;;;19.21;100.00
72896;BME280;61036;53.224;6.554;2023-10-09T00:40:40;101874.09;;;19.49;100.00
72896;BME280;61036;53.224;6.554;2023-10-09T00:43:16;101865.66;;;19.79;100.00
72896;BME280;61036;53.224;6.554;2023-10-09T00:45:46;101858.03;;;19.83;100.00
72896;BME280;61036;53.224;6.554;2023-10-09T00:48:13;101848.56;;;20.05;100.00
72896;BME280;61036;53.224;6.554;2023-10-09T00:50:47;101845.38;;;19.72;100.00
72896;BME280;61036;53.224;6.554;2023-10-09T00:53:20;101834.78;;;20.15;100.00
72896;BME280;61036;53.224;6.554;2023-10-09T00:56:01;101842.94;;;20.24;100.00
72896;BME280;61036;53.224;6.554;2023-10-09T00:58:46;101846.41;;;19.71;100.00
72896;BME280;61036;53.224;6.554;2023-10-09T01:01:14;101844.66;;;19.80;100.00
72896;BME280;61036;53.224;6.554;2023-10-09T01:03:42;101839.94;;;20.00;100.00
72896;BME280;61036;53.224;6.554;2023-10-09T01:06:09;101839.00;;;19.81;100.00
72896;BME280;61036;53.224;6.554;2023-10-09T01:08:38;101841.09;;;19.97;100.00
72896;BME280;61036;53.224;6.554;2023-10-09T01:11:10;101823.81;;;19.97;100.00
72896;BME280;61036;53.224;6.554;2023-10-09T01:13:44;101831.22;;;19.86;100.00
72896;BME280;61036;53.224;6.554;2023-10-09T01:16:21;101821.69;;;19.91;100.00
72896;BME280;61036;53.224;6.554;2023-10-09T01:18:57;101816.50;;;19.87;100.00
72896;BME280;61036;53.224;6.554;2023-10-09T01:21:23;101810.78;;;19.81;100.00
72896;BME280;61036;53.224;6.554;2023-10-09T01:23:57;101806.41;;;19.51;100.00
72896;BME280;61036;53.224;6.554;2023-10-09T01:26:32;101800.44;;;19.75;100.00
72896;BME280;61036;53.224;6.554;2023-10-09T01:29:20;101790.34;;;20.21;100.00
72896;BME280;61036;53.224;6.554;2023-10-09T01:31:50;101785.13;;;20.27;100.00
72896;BME280;61036;53.224;6.554;2023-10-09T01:34:28;101781.41;;;19.83;100.00
72896;BME280;61036;53.224;6.554;2023-10-09T01:37:03;101778.19;;;19.87;100.00
72896;BME280;61036;53.224;6.554;2023-10-09T01:39:31;101777.78;;;19.82;100.00
72896;BME280;61036;53.224;6.554;2023-10-09T01:41:57;101775.03;;;19.82;100.00
72896;BME280;61036;53.224;6.554;2023-10-09T01:44:27;101777.28;;;19.59;100.00
72896;BME280;61036;53.224;6.554;2023-10-09T01:47:03;101766.41;;;20.05;100.00
72896;BME280;61036;53.224;6.554;2023-10-09T01:49:49;101764.97;;;19.83;100.00
72896;BME280;61036;53.224;6.554;2023-10-09T01:52:15;101768.63;;;19.64;100.00
72896;BME280;61036;53.224;6.554;2023-10-09T01:54:42;101759.56;;;19.63;100.00
72896;BME280;61036;53.224;6.554;2023-10-09T01:57:12;101758.13;;;19.69;100.00
72896;BME280;61036;53.224;6.554;2023-10-09T01:59:43;101748.53;;;19.83;100.00
72896;BME280;61036;53.224;6.554;2023-10-09T02:02:19;101755.22;;;19.98;100.00
72896;BME280;61036;53.224;6.554;2023-10-09T02:07:50;101756.06;;;19.44;100.00
72896;BME280;61036;53.224;6.554;2023-10-09T02:10:20;101743.47;;;20.06;100.00
72896;BME280;61036;53.224;6.554;2023-10-09T02:13:06;101745.94;;;19.81;100.00
72896;BME280;61036;53.224;6.554;2023-10-09T02:15:33;101744.25;;;19.80;100.00
72896;BME280;61036;53.224;6.554;2023-10-09T02:18:19;101730.94;;;20.03;100.00
72896;BME280;61036;53.224;6.554;2023-10-09T02:21:08;101731.72;;;19.78;100.00
72896;BME280;61036;53.224;6.554;2023-10-09T02:23:35;101728.28;;;19.94;100.00
72896;BME280;61036;53.224;6.554;2023-10-09T02:26:11;101722.41;;;19.71;100.00
72896;BME280;61036;53.224;6.554;2023-10-09T02:28:45;101726.13;;;19.42;100.00
72896;BME280;61036;53.224;6.554;2023-10-09T02:31:26;101720.75;;;19.23;100.00
72896;BME280;61036;53.224;6.554;2023-10-09T02:34:01;101722.28;;;19.35;100.00
72896;BME280;61036;53.224;6.554;2023-10-09T02:36:31;101710.28;;;19.63;100.00
72896;BME280;61036;53.224;6.554;2023-10-09T02:38:59;101700.81;;;19.58;100.00
72896;BME280;61036;53.224;6.554;2023-10-09T02:41:25;101703.13;;;18.98;100.00
72896;BME280;61036;53.224;6.554;2023-10-09T02:43:54;101696.69;;;19.26;100.00
72896;BME280;61036;53.224;6.554;2023-10-09T02:46:35;101693.41;;;19.23;100.00
72896;BME280;61036;53.224;6.554;2023-10-09T02:49:01;101685.03;;;18.87;100.00
72896;BME280;61036;53.224;6.554;2023-10-09T02:51:31;101667.84;;;19.04;100.00
72896;BME280;61036;53.224;6.554;2023-10-09T02:54:02;101658.38;;;19.54;100.00
72896;BME280;61036;53.224;6.554;2023-10-09T02:56:49;101651.66;;;18.93;100.00
72896;BME280;61036;53.224;6.554;2023-10-09T02:59:21;101648.84;;;18.65;100.00
72896;BME280;61036;53.224;6.554;2023-10-09T03:01:47;101654.16;;;19.14;100.00
72896;BME280;61036;53.224;6.554;2023-10-09T03:04:13;101649.59;;;19.05;100.00
72896;BME280;61036;53.224;6.554;2023-10-09T03:06:40;101656.28;;;19.10;100.00
72896;BME280;61036;53.224;6.554;2023-10-09T03:09:19;101653.66;;;19.46;100.00
72896;BME280;61036;53.224;6.554;2023-10-09T03:11:56;101658.69;;;19.78;100.00
72896;BME280;61036;53.224;6.554;2023-10-09T03:14:32;101656.88;;;19.14;100.00
72896;BME280;61036;53.224;6.554;2023-10-09T03:17:00;101652.56;;;19.11;100.00
72896;BME280;61036;53.224;6.554;2023-10-09T03:19:31;101652.81;;;19.46;100.00
72896;BME280;61036;53.224;6.554;2023-10-09T03:22:03;101653.59;;;19.66;100.00
72896;BME280;61036;53.224;6.554;2023-10-09T03:24:29;101664.72;;;19.27;100.00
72896;BME280;61036;53.224;6.554;2023-10-09T03:26:57;101664.06;;;19.70;100.00
72896;BME280;61036;53.224;6.554;2023-10-09T03:29:24;101670.00;;;19.66;100.00
72896;BME280;61036;53.224;6.554;2023-10-09T03:31:49;101670.09;;;19.64;100.00
72896;BME280;61036;53.224;6.554;2023-10-09T03:34:18;101662.22;;;19.61;100.00
72896;BME280;61036;53.224;6.554;2023-10-09T03:36:45;101661.66;;;20.03;100.00
72896;BME280;61036;53.224;6.554;2023-10-09T03:39:11;101663.75;;;19.73;100.00
72896;BME280;61036;53.224;6.554;2023-10-09T03:42:05;101666.75;;;20.16;100.00
72896;BME280;61036;53.224;6.554;2023-10-09T03:44:40;101662.16;;;20.42;100.00
72896;BME280;61036;53.224;6.554;2023-10-09T03:47:09;101658.72;;;20.40;100.00
72896;BME280;61036;53.224;6.554;2023-10-09T03:49:36;101657.38;;;20.44;100.00
72896;BME280;61036;53.224;6.554;2023-10-09T03:52:04;101658.59;;;20.24;100.00
72896;BME280;61036;53.224;6.554;2023-10-09T03:54:33;101660.06;;;20.36;100.00
72896;BME280;61036;53.224;6.554;2023-10-09T03:57:00;101664.09;;;20.50;100.00
72896;BME280;61036;53.224;6.554;2023-10-09T03:59:26;101656.31;;;20.37;100.00
72896;BME280;61036;53.224;6.554;2023-10-09T04:01:55;101665.97;;;20.67;100.00
72896;BME280;61036;53.224;6.554;2023-10-09T04:04:22;101672.00;;;20.71;100.00
72896;BME280;61036;53.224;6.554;2023-10-09T04:06:48;101680.22;;;20.97;100.00
72896;BME280;61036;53.224;6.554;2023-10-09T04:09:17;101674.22;;;21.01;100.00
72896;BME280;61036;53.224;6.554;2023-10-09T04:11:49;101674.28;;;20.84;100.00
72896;BME280;61036;53.224;6.554;2023-10-09T04:14:38;101676.06;;;20.67;100.00
72896;BME280;61036;53.224;6.554;2023-10-09T04:17:15;101682.00;;;20.80;100.00
72896;BME280;61036;53.224;6.554;2023-10-09T04:19:50;101686.44;;;21.07;100.00
72896;BME280;61036;53.224;6.554;2023-10-09T04:22:39;101676.16;;;21.43;100.00
72896;BME280;61036;53.224;6.554;2023-10-09T04:25:15;101660.59;;;21.18;100.00
72896;BME280;61036;53.224;6.554;2023-10-09T04:27:50;101658.06;;;21.24;100.00
72896;BME280;61036;53.224;6.554;2023-10-09T04:30:18;101652.78;;;21.31;100.00
72896;BME280;61036;53.224;6.554;2023-10-09T04:32:44;101649.59;;;21.44;100.00
72896;BME280;61036;53.224;6.554;2023-10-09T04:35:11;101651.84;;;21.49;100.00
72896;BME280;61036;53.224;6.554;2023-10-09T04:37:42;101647.69;;;21.44;100.00
72896;BME280;61036;53.224;6.554;2023-10-09T04:40:10;101644.06;;;21.36;100.00
72896;BME280;61036;53.224;6.554;2023-10-09T04:42:37;101644.69;;;21.30;100.00
72896;BME280;61036;53.224;6.554;2023-10-09T04:45:04;101653.91;;;21.63;100.00
72896;BME280;61036;53.224;6.554;2023-10-09T04:47:35;101636.63;;;21.28;100.00
72896;BME280;61036;53.224;6.554;2023-10-09T04:50:07;101636.53;;;21.38;100.00
72896;BME280;61036;53.224;6.554;2023-10-09T04:52:35;101641.16;;;21.37;100.00
72896;BME280;61036;53.224;6.554;2023-10-09T04:55:01;101641.59;;;21.24;100.00
72896;BME280;61036;53.224;6.554;2023-10-09T04:57:43;101636.03;;;21.51;100.00
72896;BME280;61036;53.224;6.554;2023-10-09T05:00:13;101641.25;;;21.70;100.00
72896;BME280;61036;53.224;6.554;2023-10-09T05:02:52;101637.69;;;21.35;100.00
72896;BME280;61036;53.224;6.554;2023-10-09T05:05:33;101615.28;;;21.40;100.00
72896;BME280;61036;53.224;6.554;2023-10-09T05:08:11;101632.50;;;21.66;100.00
72896;BME280;61036;53.224;6.554;2023-10-09T05:10:56;101647.03;;;21.42;100.00
72896;BME280;61036;53.224;6.554;2023-10-09T05:13:22;101638.75;;;21.00;100.00
72896;BME280;61036;53.224;6.554;2023-10-09T05:16:18;101644.50;;;21.65;100.00
72896;BME280;61036;53.224;6.554;2023-10-09T05:18:48;101646.75;;;21.86;100.00
72896;BME280;61036;53.224;6.554;2023-10-09T05:21:35;101651.69;;;21.58;100.00
72896;BME280;61036;53.224;6.554;2023-10-09T05:24:04;101654.44;;;21.58;100.00
72896;BME280;61036;53.224;6.554;2023-10-09T05:26:48;101663.88;;;21.72;100.00
72896;BME280;61036;53.224;6.554;2023-10-09T05:29:14;101678.63;;;21.55;100.00
72896;BME280;61036;53.224;6.554;2023-10-09T05:32:05;101683.88;;;21.40;100.00
72896;BME280;61036;53.224;6.554;2023-10-09T05:34:40;101681.59;;;21.69;100.00
72896;BME280;61036;53.224;6.554;2023-10-09T05:37:31;101673.50;;;21.26;100.00
72896;BME280;61036;53.224;6.554;2023-10-09T05:40:09;101685.06;;;21.37;100.00
72896;BME280;61036;53.224;6.554;2023-10-09T05:42:44;101682.75;;;21.33;100.00
72896;BME280;61036;53.224;6.554;2023-10-09T05:45:15;101695.47;;;21.68;100.00
72896;BME280;61036;53.224;6.554;2023-10-09T05:50:28;101699.00;;;21.52;100.00
72896;BME280;61036;53.224;6.554;2023-10-09T05:52:57;101705.28;;;21.79;100.00
72896;BME280;61036;53.224;6.554;2023-10-09T05:55:32;101696.38;;;21.08;100.00
72896;BME280;61036;53.224;6.554;2023-10-09T05:58:16;101695.44;;;21.26;100.00
72896;BME280;61036;53.224;6.554;2023-10-09T06:01:00;101707.31;;;21.34;100.00
72896;BME280;61036;53.224;6.554;2023-10-09T06:03:44;101692.16;;;21.22;100.00
72896;BME280;61036;53.224;6.554;2023-10-09T06:06:28;101686.41;;;21.33;100.00
72896;BME280;61036;53.224;6.554;2023-10-09T06:09:13;101685.50;;;21.33;100.00
72896;BME280;61036;53.224;6.554;2023-10-09T06:11:45;101671.94;;;21.57;100.00
72896;BME280;61036;53.224;6.554;2023-10-09T06:14:23;101687.38;;;21.24;100.00
72896;BME280;61036;53.224;6.554;2023-10-09T06:16:55;101687.84;;;21.45;100.00
72896;BME280;61036;53.224;6.554;2023-10-09T06:19:26;101676.97;;;21.78;100.00
72896;BME280;61036;53.224;6.554;2023-10-09T06:21:56;101682.16;;;21.98;100.00
72896;BME280;61036;53.224;6.554;2023-10-09T06:24:41;101688.81;;;21.95;100.00
72896;BME280;61036;53.224;6.554;2023-10-09T06:27:11;101680.34;;;21.72;100.00
72896;BME280;61036;53.224;6.554;2023-10-09T06:29:40;101672.50;;;21.35;100.00
72896;BME280;61036;53.224;6.554;2023-10-09T06:32:09;101672.91;;;21.14;100.00
72896;BME280;61036;53.224;6.554;2023-10-09T06:34:41;101680.22;;;21.31;100.00
72896;BME280;61036;53.224;6.554;2023-10-09T06:37:10;101688.97;;;21.00;100.00
72896;BME280;61036;53.224;6.554;2023-10-09T06:39:44;101691.84;;;21.25;100.00
72896;BME280;61036;53.224;6.554;2023-10-09T06:42:35;101700.81;;;21.01;100.00
72896;BME280;61036;53.224;6.554;2023-10-09T06:47:53;101706.22;;;21.53;100.00
72896;BME280;61036;53.224;6.554;2023-10-09T06:50:24;101703.91;;;21.83;100.00
72896;BME280;61036;53.224;6.554;2023-10-09T06:52:53;101709.03;;;21.69;100.00
72896;BME280;61036;53.224;6.554;2023-10-09T06:55:38;101698.38;;;21.75;100.00
72896;BME280;61036;53.224;6.554;2023-10-09T06:58:21;101691.56;;;21.87;100.00
72896;BME280;61036;53.224;6.554;2023-10-09T07:00:53;101690.72;;;21.95;100.00
72896;BME280;61036;53.224;6.554;2023-10-09T07:03:21;101682.31;;;21.37;100.00
72896;BME280;61036;53.224;6.554;2023-10-09T07:06:10;101694.22;;;22.21;100.00
72896;BME280;61036;53.224;6.554;2023-10-09T07:08:56;101686.34;;;21.51;100.00
72896;BME280;61036;53.224;6.554;2023-10-09T07:11:41;101692.63;;;21.94;100.00
72896;BME280;61036;53.224;6.554;2023-10-09T07:14:21;101691.28;;;22.23;100.00
72896;BME280;61036;53.224;6.554;2023-10-09T07:17:05;101686.41;;;21.76;100.00
72896;BME280;61036;53.224;6.554;2023-10-09T07:19:51;101690.88;;;21.93;100.00
72896;BME280;61036;53.224;6.554;2023-10-09T07:22:20;101700.13;;;21.76;100.00
72896;BME280;61036;53.224;6.554;2023-10-09T07:24:46;101693.78;;;21.83;100.00
72896;BME280;61036;53.224;6.554;2023-10-09T07:27:19;101699.22;;;22.34;100.00
72896;BME280;61036;53.224;6.554;2023-10-09T07:30:06;101693.59;;;21.77;100.00
72896;BME280;61036;53.224;6.554;2023-10-09T07:32:58;101699.38;;;22.32;100.00
72896;BME280;61036;53.224;6.554;2023-10-09T07:35:46;101700.94;;;22.27;100.00
72896;BME280;61036;53.224;6.554;2023-10-09T07:38:15;101701.94;;;22.26;100.00
72896;BME280;61036;53.224;6.554;2023-10-09T07:40:45;101708.44;;;22.08;100.00
72896;BME280;61036;53.224;6.554;2023-10-09T07:43:39;101718.03;;;22.12;100.00
72896;BME280;61036;53.224;6.554;2023-10-09T07:46:10;101731.09;;;22.02;100.00
72896;BME280;61036;53.224;6.554;2023-10-09T07:48:56;101725.50;;;21.69;100.00
72896;BME280;61036;53.224;6.554;2023-10-09T07:51:23;101737.78;;;22.00;100.00
72896;BME280;61036;53.224;6.554;2023-10-09T07:53:54;101738.53;;;22.43;100.00
72896;BME280;61036;53.224;6.554;2023-10-09T07:56:26;101742.34;;;22.42;100.00
72896;BME280;61036;53.224;6.554;2023-10-09T07:58:56;101742.66;;;21.72;100.00
72896;BME280;61036;53.224;6.554;2023-10-09T08:01:25;101733.84;;;22.02;100.00
72896;BME280;61036;53.224;6.554;2023-10-09T08:03:54;101726.72;;;21.83;100.00
72896;BME280;61036;53.224;6.554;2023-10-09T08:06:26;101734.81;;;21.85;100.00
72896;BME280;61036;53.224;6.554;2023-10-09T08:09:04;101744.56;;;21.79;100.00
72896;BME280;61036;53.224;6.554;2023-10-09T08:11:44;101748.41;;;22.11;100.00
72896;BME280;61036;53.224;6.554;2023-10-09T08:14:14;101740.84;;;21.97;100.00
72896;BME280;61036;53.224;6.554;2023-10-09T08:17:06;101749.88;;;21.81;100.00
72896;BME280;61036;53.224;6.554;2023-10-09T08:19:48;101746.16;;;21.98;100.00
72896;BME280;61036;53.224;6.554;2023-10-09T08:22:30;101751.09;;;21.86;100.00
72896;BME280;61036;53.224;6.554;2023-10-09T08:24:56;101752.91;;;21.35;100.00
72896;BME280;61036;53.224;6.554;2023-10-09T08:27:28;101756.13;;;20.96;100.00
72896;BME280;61036;53.224;6.554;2023-10-09T08:30:03;101764.88;;;21.52;100.00
72896;BME280;61036;53.224;6.554;2023-10-09T08:32:45;101754.78;;;22.03;100.00
72896;BME280;61036;53.224;6.554;2023-10-09T08:35:29;101747.53;;;21.94;100.00
72896;BME280;61036;53.224;6.554;2023-10-09T08:37:59;101749.53;;;21.76;100.00
72896;BME280;61036;53.224;6.554;2023-10-09T08:40:39;101750.25;;;21.43;100.00
72896;BME280;61036;53.224;6.554;2023-10-09T08:43:09;101761.19;;;21.78;100.00
72896;BME280;61036;53.224;6.554;2023-10-09T08:45:38;101759.00;;;21.81;100.00
72896;BME280;61036;53.224;6.554;2023-10-09T08:48:06;101757.44;;;21.79;100.00
72896;BME280;61036;53.224;6.554;2023-10-09T08:50:32;101756.88;;;21.67;100.00
72896;BME280;61036;53.224;6.554;2023-10-09T08:53:01;101750.00;;;21.63;100.00
72896;BME280;61036;53.224;6.554;2023-10-09T08:55:29;101752.03;;;22.03;100.00
72896;BME280;61036;53.224;6.554;2023-10-09T08:57:55;101759.47;;;22.19;100.00
72896;BME280;61036;53.224;6.554;2023-10-09T09:00:23;101756.56;;;22.21;100.00
72896;BME280;61036;53.224;6.554;2023-10-09T09:02:55;101758.69;;;21.92;100.00
72896;BME280;61036;53.224;6.554;2023-10-09T09:05:21;101758.69;;;21.84;100.00
72896;BME280;61036;53.224;6.554;2023-10-09T09:07:47;101753.19;;;21.84;100.00
72896;BME280;61036;53.224;6.554;2023-10-09T09:10:13;101760.16;;;22.21;100.00
72896;BME280;61036;53.224;6.554;2023-10-09T09:12:48;101771.94;;;21.55;100.00
72896;BME280;61036;53.224;6.554;2023-10-09T09:15:27;101768.53;;;22.11;100.00
72896;BME280;61036;53.224;6.554;2023-10-09T09:18:03;101776.84;;;22.44;100.00
72896;BME280;61036;53.224;6.554;2023-10-09T09:20:34;101771.75;;;21.90;100.00
72896;BME280;61036;53.224;6.554;2023-10-09T09:23:02;101775.84;;;21.95;100.00
72896;BME280;61036;53.224;6.554;2023-10-09T09:28:09;101776.41;;;22.06;100.00
72896;BME280;61036;53.224;6.554;2023-10-09T09:30:38;101780.50;;;21.94;100.00
72896;BME280;61036;53.224;6.554;2023-10-09T09:33:23;101778.41;;;22.39;100.00
72896;BME280;61036;53.224;6.554;2023-10-09T09:36:10;101774.25;;;21.76;100.00
72896;BME280;61036;53.224;6.554;2023-10-09T09:38:37;101773.06;;;21.86;100.00
72896;BME280;61036;53.224;6.554;2023-10-09T09:41:19;101773.06;;;22.86;100.00
72896;BME280;61036;53.224;6.554;2023-10-09T09:43:55;101781.34;;;22.70;100.00
72896;BME280;61036;53.224;6.554;2023-10-09T09:46:22;101776.19;;;22.75;100.00
72896;BME280;61036;53.224;6.554;2023-10-09T09:49:00;101784.06;;;22.62;100.00
72896;BME280;61036;53.224;6.554;2023-10-09T09:51:25;101792.81;;;22.32;100.00
72896;BME280;61036;53.224;6.554;2023-10-09T09:53:55;101794.34;;;22.19;100.00
72896;BME280;61036;53.224;6.554;2023-10-09T09:56:24;101801.94;;;22.74;100.00
72896;BME280;61036;53.224;6.554;2023-10-09T09:58:50;101793.50;;;22.43;100.00
72896;BME280;61036;53.224;6.554;2023-10-09T10:01:25;101802.44;;;22.36;100.00
72896;BME280;61036;53.224;6.554;2023-10-09T10:03:59;101807.13;;;22.69;100.00
72896;BME280;61036;53.224;6.554;2023-10-09T10:06:28;101805.56;;;22.66;100.00
72896;BME280;61036;53.224;6.554;2023-10-09T10:08:57;101807.59;;;21.89;100.00
72896;BME280;61036;53.224;6.554;2023-10-09T10:11:45;101800.41;;;22.71;100.00
72896;BME280;61036;53.224;6.554;2023-10-09T10:14:14;101809.44;;;22.23;100.00
72896;BME280;61036;53.224;6.554;2023-10-09T10:17:06;101805.94;;;22.04;100.00
72896;BME280;61036;53.224;6.554;2023-10-09T10:22:30;101803.44;;;22.27;100.00
72896;BME280;61036;53.224;6.554;2023-10-09T10:24:56;101807.16;;;22.10;100.00
72896;BME280;61036;53.224;6.554;2023-10-09T10:27:35;101808.59;;;21.80;100.00
72896;BME280;61036;53.224;6.554;2023-10-09T10:35:20;101812.97;;;22.07;100.00
72896;BME280;61036;53.224;6.554;2023-10-09T10:37:58;101809.16;;;22.58;100.00
72896;BME280;61036;53.224;6.554;2023-10-09T10:40:33;101817.47;;;21.74;100.00
72896;BME280;61036;53.224;6.554;2023-10-09T10:43:20;101820.00;;;22.85;100.00
72896;BME280;61036;53.224;6.554;2023-10-09T10:46:06;101827.06;;;23.03;100.00
72896;BME280;61036;53.224;6.554;2023-10-09T10:48:40;101817.91;;;21.95;100.00
72896;BME280;61036;53.224;6.554;2023-10-09T10:51:12;101825.41;;;21.51;100.00
72896;BME280;61036;53.224;6.554;2023-10-09T10:53:50;101837.41;;;21.76;100.00
72896;BME280;61036;53.224;6.554;2023-10-09T10:56:18;101845.91;;;21.38;100.00
72896;BME280;61036;53.224;6.554;2023-10-09T10:58:54;101835.59;;;21.14;100.00
72896;BME280;61036;53.224;6.554;2023-10-09T11:01:33;101840.16;;;21.50;100.00
72896;BME280;61036;53.224;6.554;2023-10-09T11:04:17;101848.09;;;21.35;100.00
72896;BME280;61036;53.224;6.554;2023-10-09T11:06:56;101856.63;;;21.84;100.00
72896;BME280;61036;53.224;6.554;2023-10-09T11:09:56;101855.28;;;21.54;100.00
72896;BME280;61036;53.224;6.554;2023-10-09T11:15:30;101851.56;;;21.63;100.00
72896;BME280;61036;53.224;6.554;2023-10-09T11:18:07;101849.72;;;21.72;100.00
72896;BME280;61036;53.224;6.554;2023-10-09T11:20:39;101860.88;;;21.44;100.00
72896;BME280;61036;53.224;6.554;2023-10-09T11:23:19;101856.69;;;21.92;100.00
72896;BME280;61036;53.224;6.554;2023-10-09T11:25:57;101856.28;;;21.79;100.00
72896;BME280;61036;53.224;6.554;2023-10-09T11:28:43;101851.22;;;21.58;100.00
72896;BME280;61036;53.224;6.554;2023-10-09T11:31:14;101835.38;;;21.52;100.00
72896;BME280;61036;53.224;6.554;2023-10-09T11:33:50;101837.53;;;22.08;100.00
72896;BME280;61036;53.224;6.554;2023-10-09T11:36:22;101835.06;;;22.31;100.00
72896;BME280;61036;53.224;6.554;2023-10-09T11:38:58;101839.78;;;22.72;100.00
72896;BME280;61036;53.224;6.554;2023-10-09T11:41:41;101846.75;;;22.33;100.00
72896;BME280;61036;53.224;6.554;2023-10-09T11:44:07;101841.44;;;22.40;100.00
72896;BME280;61036;53.224;6.554;2023-10-09T11:46:57;101846.22;;;22.38;100.00
72896;BME280;61036;53.224;6.554;2023-10-09T11:49:23;101850.72;;;21.97;100.00
72896;BME280;61036;53.224;6.554;2023-10-09T11:52:09;101838.88;;;22.55;100.00
72896;BME280;61036;53.224;6.554;2023-10-09T11:54:35;101845.50;;;22.20;100.00
72896;BME280;61036;53.224;6.554;2023-10-09T11:57:02;101845.22;;;22.47;100.00
72896;BME280;61036;53.224;6.554;2023-10-09T11:59:28;101848.59;;;21.56;100.00
72896;BME280;61036;53.224;6.554;2023-10-09T12:02:00;101848.91;;;21.79;100.00
72896;BME280;61036;53.224;6.554;2023-10-09T12:04:26;101837.72;;;22.15;100.00
72896;BME280;61036;53.224;6.554;2023-10-09T12:06:56;101838.13;;;21.86;100.00
72896;BME280;61036;53.224;6.554;2023-10-09T12:09:38;101835.66;;;22.09;100.00
72896;BME280;61036;53.224;6.554;2023-10-09T12:12:06;101833.63;;;21.77;100.00
72896;BME280;61036;53.224;6.554;2023-10-09T12:14:33;101833.59;;;22.11;100.00
72896;BME280;61036;53.224;6.554;2023-10-09T12:17:02;101827.59;;;22.15;100.00
72896;BME280;61036;53.224;6.554;2023-10-09T12:19:39;101820.16;;;22.42;100.00
72896;BME280;61036;53.224;6.554;2023-10-09T12:22:06;101820.44;;;21.46;100.00
72896;BME280;61036;53.224;6.554;2023-10-09T12:24:36;101821.22;;;21.38;100.00
72896;BME280;61036;53.224;6.554;2023-10-09T12:27:03;101825.66;;;21.65;100.00
72896;BME280;61036;53.224;6.554;2023-10-09T12:29:35;101818.13;;;22.10;100.00
72896;BME280;61036;53.224;6.554;2023-10-09T12:32:00;101820.13;;;22.34;100.00
72896;BME280;61036;53.224;6.554;2023-10-09T12:34:28;101822.66;;;22.19;100.00
72896;BME280;61036;53.224;6.554;2023-10-09T12:36:54;101829.44;;;21.64;100.00
72896;BME280;61036;53.224;6.554;2023-10-09T12:39:23;101822.50;;;22.29;100.00
72896;BME280;61036;53.224;6.554;2023-10-09T12:41:48;101815.34;;;22.60;100.00
72896;BME280;61036;53.224;6.554;2023-10-09T12:44:14;101817.03;;;22.37;100.00
72896;BME280;61036;53.224;6.554;2023-10-09T12:46:43;101813.28;;;22.46;100.00
72896;BME280;61036;53.224;6.554;2023-10-09T12:49:21;101824.25;;;22.46;100.00
72896;BME280;61036;53.224;6.554;2023-10-09T12:51:53;101816.72;;;22.48;100.00
72896;BME280;61036;53.224;6.554;2023-10-09T12:54:20;101819.84;;;22.70;100.00
72896;BME280;61036;53.224;6.554;2023-10-09T12:56:46;101821.91;;;22.59;100.00
72896;BME280;61036;53.224;6.554;2023-10-09T12:59:14;101822.19;;;22.40;100.00
72896;BME280;61036;53.224;6.554;2023-10-09T13:01:43;101818.78;;;22.71;100.00
72896;BME280;61036;53.224;6.554;2023-10-09T13:04:13;101818.97;;;22.86;100.00
72896;BME280;61036;53.224;6.554;2023-10-09T13:06:41;101818.13;;;23.18;100.00
72896;BME280;61036;53.224;6.554;2023-10-09T13:09:11;101810.16;;;23.39;100.00
72896;BME280;61036;53.224;6.554;2023-10-09T13:11:39;101816.75;;;22.73;100.00
72896;BME280;61036;53.224;6.554;2023-10-09T13:14:06;101822.88;;;22.50;100.00
72896;BME280;61036;53.224;6.554;2023-10-09T13:16:52;101810.75;;;22.77;100.00
72896;BME280;61036;53.224;6.554;2023-10-09T13:19:18;101820.31;;;22.65;100.00
72896;BME280;61036;53.224;6.554;2023-10-09T13:21:44;101828.63;;;22.90;100.00
72896;BME280;61036;53.224;6.554;2023-10-09T13:24:10;101825.22;;;22.96;100.00
72896;BME280;61036;53.224;6.554;2023-10-09T13:26:44;101826.22;;;22.87;100.00
72896;BME280;61036;53.224;6.554;2023-10-09T13:29:12;101830.31;;;22.07;100.00
72896;BME280;61036;53.224;6.554;2023-10-09T13:31:38;101829.97;;;22.69;100.00
72896;BME280;61036;53.224;6.554;2023-10-09T13:34:06;101836.38;;;23.11;100.00